Time;durP1;ratioP1;P1;durP2;ratioP2;P2;SDS_P1;SDS_P2;PMS_P1;PMS_P2;Temp;Humidity;BMP_temperature;BMP_pressure;BME280_temperature;BME280_humidity;BME280_pressure;Samples;Min_cycle;Max_cycle;Signal;HPM_P1;HPM_P2
2022/06/07 00:02:44;;;;;;;3.78;2.00;;;;;;;19.94;72.93;99682.44;4465230;32;33744;-75
2022/06/07 00:05:31;;;;;;;1.83;1.42;;;;;;;19.87;72.90;99676.78;4466377;32;34737;-75
2022/06/07 00:08:19;;;;;;;2.40;1.42;;;;;;;20.07;71.82;99677.50;4464528;32;36275;-75
2022/06/07 00:11:06;;;;;;;2.90;1.58;;;;;;;20.07;71.55;99683.84;4463344;32;34603;-74
2022/06/07 00:13:52;;;;;;;2.83;1.42;;;;;;;20.00;71.74;99669.81;4466383;32;34762;-74
2022/06/07 00:16:39;;;;;;;2.25;1.60;;;;;;;20.00;71.73;99675.38;4462748;32;35559;-75
2022/06/07 00:19:25;;;;;;;2.45;1.50;;;;;;;19.90;72.44;99678.81;4464467;32;35579;-75
2022/06/07 00:22:12;;;;;;;4.18;1.67;;;;;;;19.83;72.85;99681.47;4464875;32;34620;-72
2022/06/07 00:24:59;;;;;;;2.47;1.85;;;;;;;19.69;73.34;99682.84;4463088;32;34154;-72
2022/06/07 00:27:47;;;;;;;3.08;1.62;;;;;;;19.82;72.84;99677.09;4463422;32;35144;-72
2022/06/07 00:30:34;;;;;;;2.95;1.62;;;;;;;19.63;73.35;99673.16;4463930;32;35059;-72
2022/06/07 00:33:21;;;;;;;3.35;1.77;;;;;;;19.04;76.82;99668.91;4465575;32;35312;-72
2022/06/07 00:36:08;;;;;;;5.22;1.70;;;;;;;18.68;78.77;99672.94;4462471;32;35106;-72
2022/06/07 00:38:55;;;;;;;2.58;1.50;;;;;;;19.45;74.83;99667.31;4461616;32;35264;-73
2022/06/07 00:41:41;;;;;;;3.10;1.70;;;;;;;18.65;78.45;99663.38;4463983;32;35587;-72
2022/06/07 00:44:35;;;;;;;3.90;1.70;;;;;;;18.42;80.76;99661.31;4465529;32;34902;-73
2022/06/07 00:47:24;;;;;;;4.65;1.95;;;;;;;18.47;80.00;99668.56;4453655;32;34867;-73
2022/06/07 00:50:11;;;;;;;2.67;1.50;;;;;;;18.65;78.92;99664.16;4462738;32;34610;-73
2022/06/07 00:52:59;;;;;;;1.37;1.27;;;;;;;19.33;75.39;99668.31;4464770;32;35989;-72
2022/06/07 00:55:45;;;;;;;2.67;1.60;;;;;;;19.15;75.17;99667.16;4465564;32;34763;-72
2022/06/07 00:58:35;;;;;;;2.45;1.50;;;;;;;18.52;79.63;99670.22;4464180;32;33664;-73
2022/06/07 01:01:27;;;;;;;3.78;1.90;;;;;;;18.47;78.55;99662.19;4463899;32;34654;-73
2022/06/07 01:04:15;;;;;;;5.00;1.50;;;;;;;19.05;76.11;99659.44;4464485;32;35937;-72
2022/06/07 01:13:17;;;;;;;3.28;1.40;;;;;;;19.55;73.08;99661.16;4463888;32;36244;-73
2022/06/07 01:16:08;;;;;;;3.37;1.52;;;;;;;19.54;73.46;99655.94;4463121;32;35959;-72
2022/06/07 01:18:56;;;;;;;3.47;1.33;;;;;;;19.59;72.80;99660.41;4465606;32;34685;-73
2022/06/07 01:21:45;;;;;;;1.92;1.58;;;;;;;19.42;73.64;99654.16;4464259;32;34106;-73
2022/06/07 01:24:32;;;;;;;5.72;1.70;;;;;;;19.26;74.34;99647.91;4463504;32;35534;-73
2022/06/07 01:27:20;;;;;;;3.78;1.60;;;;;;;19.26;74.35;99642.34;4464875;32;34586;-73
2022/06/07 01:30:07;;;;;;;3.45;1.50;;;;;;;19.27;74.43;99644.78;4464080;32;35088;-72
2022/06/07 01:32:53;;;;;;;4.32;1.50;;;;;;;18.92;75.48;99644.91;4465285;32;34131;-72
2022/06/07 01:35:40;;;;;;;4.05;1.60;;;;;;;18.92;76.02;99644.91;4463337;32;34208;-72
2022/06/07 01:38:27;;;;;;;3.33;1.40;;;;;;;19.00;75.79;99629.97;4462859;32;34501;-73
2022/06/07 01:44:37;;;;;;;2.25;1.52;;;;;;;18.51;77.06;99638.09;4465127;32;34563;-73
2022/06/07 01:47:31;;;;;;;2.47;1.17;;;;;;;18.88;75.13;99636.50;4463860;32;34645;-72
2022/06/07 01:50:18;;;;;;;3.00;1.48;;;;;;;18.94;74.72;99637.00;4452707;32;35976;-73
2022/06/07 01:53:05;;;;;;;1.87;1.30;;;;;;;18.91;75.03;99636.94;4465069;32;34091;-73
2022/06/07 01:55:51;;;;;;;1.83;1.23;;;;;;;18.95;74.55;99629.47;4463518;32;34214;-72
2022/06/07 01:58:39;;;;;;;1.83;1.00;;;;;;;19.10;73.55;99634.16;4461026;32;35603;-72
2022/06/07 02:01:26;;;;;;;1.67;1.30;;;;;;;19.09;73.37;99632.53;4452963;32;34432;-72
2022/06/07 02:04:13;;;;;;;1.73;1.15;;;;;;;19.05;73.12;99626.13;4463575;32;35511;-72
2022/06/07 02:07:00;;;;;;;2.28;1.40;;;;;;;18.77;74.49;99620.81;4463195;32;33694;-72
2022/06/07 02:09:47;;;;;;;2.08;1.10;;;;;;;18.82;74.14;99626.06;4463488;32;35590;-73
2022/06/07 02:12:34;;;;;;;2.10;1.40;;;;;;;18.52;75.82;99612.75;4460652;32;35006;-73
2022/06/07 02:15:21;;;;;;;2.05;1.40;;;;;;;18.50;76.59;99608.72;4462825;32;34701;-72
2022/06/07 02:18:12;;;;;;;1.55;1.30;;;;;;;18.77;75.19;99598.63;4453349;32;36990;-73
2022/06/07 02:21:00;;;;;;;1.62;1.25;;;;;;;18.55;76.76;99605.66;4462774;32;35189;-74
2022/06/07 02:23:49;;;;;;;2.30;1.27;;;;;;;19.00;74.35;99606.97;4467929;32;34953;-73
2022/06/07 02:26:46;;;;;;;3.83;1.50;;;;;;;18.74;75.06;99602.13;4458896;32;34024;-72
2022/06/07 02:29:37;;;;;;;3.53;1.30;;;;;;;18.83;75.21;99597.94;4454345;32;34162;-72
2022/06/07 02:32:27;;;;;;;2.87;1.30;;;;;;;18.92;74.60;99596.91;4453887;32;35541;-72
2022/06/07 02:35:13;;;;;;;1.95;1.35;;;;;;;18.71;75.84;99595.31;4466788;32;34509;-72
2022/06/07 02:38:01;;;;;;;1.77;1.20;;;;;;;18.51;76.37;99591.72;4464535;32;34560;-72
2022/06/07 02:40:51;;;;;;;3.10;1.20;;;;;;;18.87;74.55;99593.28;4444259;32;35305;-72
2022/06/07 02:43:37;;;;;;;2.75;1.35;;;;;;;19.11;73.16;99602.41;4465361;32;34589;-72
2022/06/07 02:46:24;;;;;;;3.20;1.52;;;;;;;19.08;73.07;99603.16;4464066;32;35210;-72
2022/06/07 02:49:10;;;;;;;3.15;2.03;;;;;;;18.76;73.93;99603.38;4458301;32;34023;-74
2022/06/07 02:51:59;;;;;;;1.45;1.30;;;;;;;18.84;73.79;99599.56;4466603;32;34891;-72
2022/06/07 02:54:55;;;;;;;2.30;1.20;;;;;;;18.84;74.14;99605.13;4466453;32;34656;-72
2022/06/07 02:57:42;;;;;;;2.92;1.50;;;;;;;18.83;74.11;99599.91;4465232;32;36717;-72
2022/06/07 03:00:30;;;;;;;2.20;1.60;;;;;;;18.67;74.95;99602.75;4466625;32;34805;-72
2022/06/07 03:03:17;;;;;;;3.40;1.65;;;;;;;18.80;74.52;99601.44;4464601;32;33239;-72
2022/06/07 03:06:03;;;;;;;2.37;1.45;;;;;;;18.45;75.89;99604.28;4463478;32;34526;-72
2022/06/07 03:08:50;;;;;;;2.95;1.75;;;;;;;17.93;79.17;99603.56;4459441;32;34093;-72
2022/06/07 03:14:30;;;;;;;4.75;1.75;;;;;;;17.22;84.79;99601.81;4464917;32;34065;-72
2022/06/07 03:17:17;;;;;;;2.10;1.33;;;;;;;17.66;82.06;99602.50;4465301;32;35475;-73
2022/06/07 03:20:06;;;;;;;2.60;1.35;;;;;;;18.07;80.14;99602.28;4466255;32;36044;-72
2022/06/07 03:22:55;;;;;;;1.90;1.35;;;;;;;17.76;81.52;99607.50;4464652;32;34601;-72
2022/06/07 03:25:43;;;;;;;1.62;0.90;;;;;;;18.11;79.75;99608.72;4463679;32;34106;-73
2022/06/07 03:28:30;;;;;;;2.03;1.40;;;;;;;18.22;79.41;99604.22;4463233;32;34437;-72
2022/06/07 03:31:18;;;;;;;3.12;1.48;;;;;;;18.66;76.90;99598.38;4465529;32;34488;-72
2022/06/07 03:34:07;;;;;;;3.60;1.27;;;;;;;18.79;76.17;99605.41;4464229;32;35466;-72
2022/06/07 03:36:54;;;;;;;4.10;1.60;;;;;;;18.58;76.79;99604.94;4463775;32;34402;-72
2022/06/07 03:39:41;;;;;;;4.60;1.58;;;;;;;17.95;81.20;99605.97;4465446;32;35587;-72
2022/06/07 03:42:29;;;;;;;2.83;1.50;;;;;;;18.17;79.86;99604.50;4464846;32;35207;-72
2022/06/07 03:45:16;;;;;;;4.18;1.65;;;;;;;18.59;78.34;99599.03;4461205;32;34579;-73
2022/06/07 03:48:04;;;;;;;2.03;1.30;;;;;;;18.65;78.01;99599.53;4460429;32;32734;-72
2022/06/07 03:50:53;;;;;;;3.50;1.87;;;;;;;18.56;79.00;99604.53;4462350;32;34677;-72
2022/06/07 03:53:43;;;;;;;2.50;1.40;;;;;;;18.89;77.28;99595.66;4463529;32;34777;-73
2022/06/07 03:56:30;;;;;;;4.35;1.50;;;;;;;18.88;76.93;99600.41;4463265;32;35516;-72
2022/06/07 03:59:18;;;;;;;2.12;1.25;;;;;;;19.15;76.27;99603.28;4460917;32;35150;-72
2022/06/07 04:02:06;;;;;;;2.87;1.52;;;;;;;19.19;76.18;99604.16;4462151;32;34588;-73
2022/06/07 04:04:53;;;;;;;5.15;1.80;;;;;;;19.00;76.99;99602.22;4462216;32;35885;-72
2022/06/07 04:10:58;;;;;;;3.55;1.50;;;;;;;19.11;77.04;99588.53;4462422;32;33785;-72
2022/06/07 04:13:51;;;;;;;2.85;1.62;;;;;;;19.16;77.19;99587.44;4457037;32;34162;-72
2022/06/07 04:16:40;;;;;;;3.10;1.83;;;;;;;19.18;77.24;99585.06;4464603;32;36163;-73
2022/06/07 04:19:29;;;;;;;3.13;1.93;;;;;;;18.27;81.63;99578.97;4462181;32;34661;-72
2022/06/07 04:22:16;;;;;;;3.22;1.90;;;;;;;17.92;85.55;99579.78;4464290;32;33624;-72
2022/06/07 04:25:03;;;;;;;3.15;1.77;;;;;;;18.05;86.53;99568.59;4461791;32;35536;-73
2022/06/07 04:27:55;;;;;;;4.07;1.85;;;;;;;17.44;91.63;99572.69;4449480;32;321672;-73
2022/06/07 04:30:46;;;;;;;3.58;2.28;;;;;;;17.45;91.09;99566.78;4462675;32;33466;-73
2022/06/07 04:33:34;;;;;;;;;;;;;;;17.53;91.52;99571.34;4464201;32;34259;-73
2022/06/07 04:36:24;;;;;;;3.10;1.90;;;;;;;18.72;85.10;99566.37;4466393;32;34912;-73
2022/06/07 04:39:12;;;;;;;3.57;1.70;;;;;;;18.81;85.14;99560.63;4466011;32;35062;-73
2022/06/07 04:41:59;;;;;;;3.08;1.85;;;;;;;19.04;82.92;99563.41;4462224;32;34590;-73
2022/06/07 04:44:48;;;;;;;3.47;1.83;;;;;;;19.46;80.82;99568.09;4463695;32;34643;-73
2022/06/07 04:47:37;;;;;;;3.78;1.52;;;;;;;19.22;81.80;99574.84;4458657;32;36177;-73
2022/06/07 04:50:24;;;;;;;4.15;1.62;;;;;;;19.76;79.68;99571.78;4462624;32;34973;-73
2022/06/07 04:53:14;;;;;;;2.17;1.40;;;;;;;19.62;80.43;99571.53;4466079;32;34647;-73
2022/06/07 04:56:20;;;;;;;2.42;1.30;;;;;;;19.09;81.83;99566.69;4465637;32;34670;-73
2022/06/07 04:59:07;;;;;;;4.62;1.65;;;;;;;19.85;79.68;99574.28;4464055;32;34348;-73
2022/06/07 05:01:55;;;;;;;3.28;1.42;;;;;;;20.34;76.59;99584.47;4462209;32;35996;-77
2022/06/07 05:04:45;;;;;;;2.87;1.50;;;;;;;20.37;76.96;99567.03;4454897;32;34533;-77
2022/06/07 05:07:37;;;;;;;2.17;1.25;;;;;;;20.73;74.98;99563.91;4461283;32;34043;-77
2022/06/07 05:10:24;;;;;;;2.25;1.40;;;;;;;21.18;72.71;99565.53;4465487;32;35462;-76
2022/06/07 05:13:17;;;;;;;3.03;1.98;;;;;;;20.62;74.81;99566.56;4466333;32;33940;-76
2022/06/07 05:16:05;;;;;;;3.78;1.45;;;;;;;21.41;71.40;99568.16;4464947;32;35660;-76
2022/06/07 05:18:53;;;;;;;4.70;1.50;;;;;;;21.09;72.15;99573.41;4451054;32;34727;-73
2022/06/07 05:21:41;;;;;;;1.52;1.30;;;;;;;20.76;74.98;99565.91;4463647;32;35331;-73
2022/06/07 05:24:27;;;;;;;3.05;1.30;;;;;;;21.04;73.86;99571.78;4449138;32;34838;-73
2022/06/07 05:27:17;;;;;;;2.22;1.17;;;;;;;21.16;72.24;99573.47;4466331;32;34838;-76
2022/06/07 05:30:06;;;;;;;4.17;1.50;;;;;;;21.10;72.62;99578.59;4463712;32;35308;-76
2022/06/07 05:32:58;;;;;;;2.42;1.50;;;;;;;21.65;69.74;99575.09;4464372;32;34448;-75
2022/06/07 05:35:46;;;;;;;1.90;1.37;;;;;;;21.54;70.76;99577.81;4464245;32;35970;-73
2022/06/07 05:38:33;;;;;;;2.65;1.48;;;;;;;21.98;68.82;99579.69;4463924;32;35423;-72
2022/06/07 05:41:29;;;;;;;2.53;1.40;;;;;;;22.48;65.34;99581.16;4459115;32;34095;-73
2022/06/07 05:44:16;;;;;;;4.30;1.42;;;;;;;22.40;66.91;99583.16;4459386;32;34550;-74
2022/06/07 05:47:04;;;;;;;3.53;1.37;;;;;;;22.18;66.91;99576.66;4459421;32;34978;-73
2022/06/07 05:49:55;;;;;;;2.15;1.40;;;;;;;21.98;67.94;99574.13;4466271;32;34586;-73
2022/06/07 05:52:42;;;;;;;2.62;1.55;;;;;;;21.65;68.80;99583.44;4466292;32;34801;-73
2022/06/07 05:55:30;;;;;;;5.57;1.55;;;;;;;21.98;68.46;99579.69;4465450;32;35224;-73
2022/06/07 05:58:17;;;;;;;3.12;1.45;;;;;;;22.05;66.58;99575.34;4465255;32;34008;-73
2022/06/07 06:01:06;;;;;;;4.10;1.62;;;;;;;22.42;66.34;99575.94;4458916;32;35480;-74
2022/06/07 06:03:56;;;;;;;4.30;1.73;;;;;;;22.09;68.17;99578.97;4458829;32;35016;-72
2022/06/07 06:06:49;;;;;;;2.08;1.48;;;;;;;21.81;68.03;99577.59;4443328;32;34087;-72
2022/06/07 06:12:47;;;;;;;3.40;1.60;;;;;;;23.09;62.62;99570.97;4459263;32;34637;-74
2022/06/07 06:15:36;;;;;;;2.65;1.70;;;;;;;23.54;60.95;99574.19;4464172;32;34236;-75
2022/06/07 06:18:23;;;;;;;2.50;1.50;;;;;;;23.50;60.55;99576.19;4459617;32;35585;-76
2022/06/07 06:21:10;;;;;;;2.17;1.52;;;;;;;23.70;59.73;99577.38;4461712;32;34995;-75
2022/06/07 06:23:58;;;;;;;2.97;1.40;;;;;;;23.92;60.51;99580.16;4462616;32;34911;-75
2022/06/07 06:26:48;;;;;;;3.50;1.40;;;;;;;24.04;57.76;99576.94;4451130;32;34939;-74
2022/06/07 06:29:36;;;;;;;2.22;1.30;;;;;;;24.40;57.65;99572.03;4460705;32;34293;-76
2022/06/07 06:32:26;;;;;;;2.50;1.65;;;;;;;23.74;58.02;99572.59;4464106;32;35724;-75
2022/06/07 06:35:14;;;;;;;3.30;1.70;;;;;;;24.14;57.64;99569.72;4457839;32;35430;-74
2022/06/07 06:38:01;;;;;;;2.55;1.62;;;;;;;23.19;59.48;99561.00;4465637;32;33733;-75
2022/06/07 06:40:49;;;;;;;3.17;2.22;;;;;;;23.22;59.03;99561.00;4463577;32;34299;-75
2022/06/07 06:43:36;;;;;;;1.58;1.48;;;;;;;23.81;57.18;99562.59;4458985;32;34611;-74
2022/06/07 06:46:32;;;;;;;2.25;1.50;;;;;;;23.80;57.64;99553.41;4459269;32;34641;-73
2022/06/07 06:49:20;;;;;;;2.62;1.45;;;;;;;23.99;57.69;99560.56;4449113;32;35096;-73
2022/06/07 06:52:17;;;;;;;4.05;1.70;;;;;;;23.21;57.27;99559.41;4454291;32;34109;-74
2022/06/07 06:55:04;;;;;;;6.43;1.62;;;;;;;23.83;56.09;99560.22;4460545;32;34997;-76
2022/06/07 06:57:51;;;;;;;2.08;1.60;;;;;;;24.11;55.38;99554.53;4458541;32;33167;-75
2022/06/07 07:00:39;;;;;;;3.28;1.60;;;;;;;24.55;54.10;99561.56;4469463;32;34126;-75
2022/06/07 07:03:27;;;;;;;4.28;1.60;;;;;;;24.36;54.67;99559.22;4452599;32;35405;-74
2022/06/07 07:06:15;;;;;;;3.55;1.65;;;;;;;23.94;54.77;99555.38;4459677;32;35952;-72
2022/06/07 07:09:04;;;;;;;2.37;1.62;;;;;;;24.44;53.57;99555.22;4459122;32;34626;-77
2022/06/07 07:11:53;;;;;;;4.07;1.67;;;;;;;24.61;52.51;99545.16;4461336;32;35099;-75
2022/06/07 07:14:42;;;;;;;2.95;1.58;;;;;;;24.69;52.66;99555.09;4457942;32;35103;-74
2022/06/07 07:17:36;;;;;;;2.40;1.50;;;;;;;24.35;55.03;99552.84;4464239;32;34591;-75
2022/06/07 07:20:23;;;;;;;2.35;1.92;;;;;;;25.41;52.64;99544.19;4458397;32;34756;-75
2022/06/07 07:23:17;;;;;;;3.10;2.17;;;;;;;25.19;52.18;99543.59;4462267;32;34606;-75
2022/06/07 07:26:23;;;;;;;2.25;1.65;;;;;;;25.46;51.97;99540.94;4462776;32;35167;-77
2022/06/07 07:29:15;;;;;;;2.78;1.80;;;;;;;25.36;50.59;99533.44;4465467;32;34881;-77
2022/06/07 07:32:04;;;;;;;2.27;2.03;;;;;;;25.77;50.77;99536.25;4465000;32;34835;-76
2022/06/07 07:34:57;;;;;;;2.75;1.73;;;;;;;25.17;50.68;99523.59;4451437;32;35113;-76
2022/06/07 07:37:45;;;;;;;4.18;2.03;;;;;;;25.43;50.65;99530.56;4461965;32;34346;-75
2022/06/07 07:40:32;;;;;;;3.62;1.95;;;;;;;26.23;49.50;99531.34;4459462;32;35450;-77
2022/06/07 07:43:19;;;;;;;4.03;1.75;;;;;;;25.73;52.71;99526.28;4456636;32;35491;-76
2022/06/07 07:46:07;;;;;;;4.20;1.95;;;;;;;26.01;51.23;99531.62;4451721;32;34059;-76
2022/06/07 07:49:03;;;;;;;2.87;1.67;;;;;;;26.45;49.36;99529.06;4456314;32;34163;-75
2022/06/07 07:51:53;;;;;;;3.60;2.10;;;;;;;26.60;49.07;99515.66;4459857;32;34902;-76
2022/06/07 07:54:42;;;;;;;6.35;2.17;;;;;;;26.69;48.10;99524.34;4448809;32;35581;-74
2022/06/07 07:57:31;;;;;;;7.72;2.62;;;;;;;26.90;49.41;99529.66;4458914;32;33799;-75
2022/06/07 08:00:19;;;;;;;4.30;2.25;;;;;;;26.71;47.01;99526.75;4456475;32;34201;-76
2022/06/07 08:03:13;;;;;;;3.65;1.73;;;;;;;26.72;48.40;99522.69;4456745;32;34899;-78
2022/06/07 08:06:00;;;;;;;2.42;1.75;;;;;;;27.38;44.51;99516.47;4456922;32;34572;-76
2022/06/07 08:08:50;;;;;;;2.55;1.75;;;;;;;27.34;43.74;99524.16;4454438;32;34152;-78
2022/06/07 08:11:41;;;;;;;2.50;2.10;;;;;;;27.53;44.98;99519.81;4461621;32;36093;-78
2022/06/07 08:14:32;;;;;;;5.22;2.08;;;;;;;27.48;43.63;99514.69;4453433;32;35009;-78
2022/06/07 08:17:20;;;;;;;5.57;1.80;;;;;;;27.92;44.67;99524.75;4460652;32;34269;-74
2022/06/07 08:20:10;;;;;;;2.90;1.62;;;;;;;27.92;42.75;99518.31;4457811;32;34298;-75
2022/06/07 08:22:57;;;;;;;2.42;2.00;;;;;;;28.10;43.12;99517.97;4461164;32;35335;-76
2022/06/07 08:25:44;;;;;;;2.78;1.83;;;;;;;28.36;42.95;99507.75;4461939;32;35952;-76
2022/06/07 08:28:31;;;;;;;3.30;2.15;;;;;;;27.69;44.08;99505.87;4463259;32;34511;-76
2022/06/07 08:31:26;;;;;;;4.15;2.10;;;;;;;28.12;43.40;99509.88;4466251;32;34193;-77
2022/06/07 08:37:33;;;;;;;3.83;1.73;;;;;;;28.12;41.25;99507.88;4458059;32;34565;-75
2022/06/07 08:40:26;;;;;;;2.05;1.70;;;;;;;28.35;40.35;99501.34;4452387;32;34192;-75
2022/06/07 08:43:16;;;;;;;3.08;1.95;;;;;;;28.09;41.09;99508.72;4452344;32;34186;-75
2022/06/07 08:46:03;;;;;;;2.58;1.80;;;;;;;28.55;40.26;99492.88;4450541;32;35498;-75
2022/06/07 08:48:51;;;;;;;2.45;1.87;;;;;;;28.75;40.55;99511.78;4455100;32;34990;-72
2022/06/07 08:52:09;;;;;;;4.85;1.90;;;;;;;28.82;39.77;99500.31;4460536;32;34315;-72
2022/06/07 08:54:58;;;;;;;3.45;1.83;;;;;;;29.22;39.76;99494.53;4452340;32;33655;-75
2022/06/07 08:58:00;;;;;;;4.50;2.10;;;;;;;29.37;38.88;99498.56;4459340;32;34557;-77
2022/06/07 09:00:50;;;;;;;3.20;2.10;;;;;;;29.11;38.32;99495.59;4462274;32;35533;-77
2022/06/07 09:04:14;;;;;;;3.33;2.15;;;;;;;29.36;40.10;99505.47;4458069;32;34275;-76
2022/06/07 09:07:13;;;;;;;;;;;;;;;29.63;38.58;99495.91;4449153;32;33564;-76
2022/06/07 09:13:19;;;;;;;2.90;2.20;;;;;;;27.61;39.59;99489.50;4458186;32;34924;-74
2022/06/07 09:16:05;;;;;;;2.75;1.92;;;;;;;27.70;40.02;99493.38;4455887;32;34912;-77
2022/06/07 09:18:53;;;;;;;3.75;2.17;;;;;;;28.95;39.25;99492.75;4456526;32;35268;-76
2022/06/07 09:21:44;;;;;;;3.35;2.00;;;;;;;29.18;37.78;99485.38;4463059;32;33849;-75
2022/06/07 09:24:37;;;;;;;6.13;2.33;;;;;;;29.74;39.66;99482.28;4462088;32;35905;-75
2022/06/07 09:27:26;;;;;;;2.92;1.60;;;;;;;29.29;37.10;99478.22;4460011;32;35500;-77
2022/06/07 09:30:16;;;;;;;3.40;2.15;;;;;;;29.74;36.44;99473.81;4445626;32;35092;-76
2022/06/07 09:33:10;;;;;;;;;;;;;;;30.24;36.64;99478.06;4457488;32;34406;-77
2022/06/07 09:36:03;;;;;;;2.78;1.95;;;;;;;30.58;35.77;99465.31;4452067;32;35867;-76
2022/06/07 09:39:01;;;;;;;4.00;1.77;;;;;;;30.37;36.12;99472.41;4460888;32;35584;-76
2022/06/07 09:42:00;;;;;;;2.78;1.73;;;;;;;29.41;36.34;99465.41;4465161;32;35104;-75
2022/06/07 09:45:20;;;;;;;3.90;1.83;;;;;;;29.16;36.44;99462.47;4451081;32;34560;-75
2022/06/07 09:48:25;;;;;;;2.90;1.80;;;;;;;29.61;36.83;99464.50;4439481;32;34985;-73
2022/06/07 09:51:21;;;;;;;2.72;1.75;;;;;;;30.07;37.29;99460.37;4464815;32;34176;-74
2022/06/07 09:54:19;;;;;;;2.28;1.52;;;;;;;29.81;37.69;99456.69;4462682;32;33686;-77
2022/06/07 09:57:14;;;;;;;2.58;1.73;;;;;;;30.42;36.97;99452.87;4459905;32;35596;-77
2022/06/07 10:00:19;;;;;;;4.87;1.67;;;;;;;30.63;37.53;99453.47;4452043;32;34503;-76
2022/06/07 10:03:19;;;;;;;4.35;1.87;;;;;;;30.79;35.09;99450.50;4447087;32;34181;-76
2022/06/07 10:06:27;;;;;;;1.87;1.42;;;;;;;30.47;34.59;99443.81;4455138;32;33913;-76
2022/06/07 10:09:27;;;;;;;2.28;1.92;;;;;;;31.13;34.88;99437.66;4463131;32;34190;-76
2022/06/07 10:12:28;;;;;;;5.22;1.80;;;;;;;30.12;33.57;99440.03;4462873;32;35948;-76
2022/06/07 10:15:36;;;;;;;3.72;1.52;;;;;;;30.52;36.31;99433.22;4463970;32;34308;-75
2022/06/07 10:19:18;;;;;;;2.47;1.65;;;;;;;31.17;33.10;99435.53;4460692;32;35253;-74
2022/06/07 10:22:32;;;;;;;6.40;1.67;;;;;;;31.01;33.48;99432.84;4426757;32;34574;-74
2022/06/07 10:25:36;;;;;;;1.30;1.20;;;;;;;30.00;33.66;99433.12;4455616;32;35088;-74
2022/06/07 10:29:04;;;;;;;3.70;1.40;;;;;;;31.13;34.02;99424.31;4445740;32;34316;-74
2022/06/07 10:31:59;;;;;;;2.70;1.50;;;;;;;31.65;33.43;99424.97;4456687;32;34872;-75
2022/06/07 10:34:53;;;;;;;8.70;1.77;;;;;;;31.62;33.04;99420.22;4459751;32;34782;-75
2022/06/07 10:38:12;;;;;;;2.22;1.42;;;;;;;31.01;33.28;99415.88;4458966;32;34525;-74
2022/06/07 10:41:17;;;;;;;3.20;1.62;;;;;;;30.89;34.96;99420.31;4454317;32;35338;-75
2022/06/07 10:44:31;;;;;;;3.80;1.77;;;;;;;30.33;35.74;99418.06;4461761;32;34196;-76
2022/06/07 10:47:32;;;;;;;2.30;1.73;;;;;;;30.72;35.18;99413.97;4461562;32;34930;-75
2022/06/07 10:50:23;;;;;;;2.75;1.55;;;;;;;30.91;34.08;99407.31;4460473;32;34648;-76
2022/06/07 10:53:20;;;;;;;2.05;1.70;;;;;;;31.44;35.54;99403.06;4464598;32;34656;-76
2022/06/07 10:56:22;;;;;;;3.72;1.60;;;;;;;31.29;34.56;99402.78;4458815;32;33649;-73
2022/06/07 10:59:20;;;;;;;3.42;1.67;;;;;;;30.86;34.37;99399.37;4459003;32;33438;-75
2022/06/07 11:02:51;;;;;;;2.03;1.50;;;;;;;28.85;35.43;99383.81;4459334;32;34596;-75
2022/06/07 11:09:20;;;;;;;3.22;1.52;;;;;;;31.28;34.66;99376.50;4458736;32;33981;-77
2022/06/07 11:12:22;;;;;;;2.58;1.40;;;;;;;31.44;31.76;99371.94;4461797;32;34647;-74
2022/06/07 11:15:34;;;;;;;3.97;1.92;;;;;;;30.16;35.16;99374.94;4464347;32;35881;-74
2022/06/07 11:18:24;;;;;;;1.75;1.50;;;;;;;30.05;35.61;99372.44;4462301;32;34761;-74
2022/06/07 11:21:37;;;;;;;2.78;1.60;;;;;;;30.57;33.95;99370.44;4453183;32;34341;-75
2022/06/07 11:24:35;;;;;;;3.95;1.27;;;;;;;30.66;34.72;99364.91;4455173;32;35557;-74
2022/06/07 11:27:25;;;;;;;1.80;1.40;;;;;;;30.45;35.09;99363.53;4462128;32;34927;-75
2022/06/07 11:30:40;;;;;;;3.35;1.67;;;;;;;30.67;34.07;99357.97;4440720;32;36165;-80
2022/06/07 11:33:30;;;;;;;2.95;1.30;;;;;;;31.29;32.90;99352.59;4462300;32;34181;-76
2022/06/07 11:36:32;;;;;;;5.35;1.83;;;;;;;31.18;33.25;99345.75;4468806;32;34644;-75
2022/06/07 11:39:23;;;;;;;2.67;1.58;;;;;;;32.00;32.87;99354.84;4454638;31;35845;-78
2022/06/07 11:42:16;;;;;;;2.53;1.50;;;;;;;31.18;32.85;99346.53;4477340;31;34249;-76
2022/06/07 11:45:04;;;;;;;2.00;1.52;;;;;;;31.75;31.70;99346.50;4480770;31;35065;-77
2022/06/07 11:48:01;;;;;;;1.90;1.50;;;;;;;31.42;30.20;99351.78;4480214;31;34244;-76
2022/06/07 11:51:05;;;;;;;5.43;1.40;;;;;;;32.03;31.05;99338.97;4475983;31;36142;-77
2022/06/07 11:54:01;;;;;;;2.58;1.60;;;;;;;32.42;31.34;99328.88;4459327;32;35519;-78
2022/06/07 11:56:59;;;;;;;2.08;1.48;;;;;;;31.84;31.43;99323.09;4466545;32;33842;-76
2022/06/07 11:59:50;;;;;;;3.42;1.45;;;;;;;31.37;30.46;99327.72;4467529;31;34921;-77
2022/06/07 12:03:01;;;;;;;2.05;1.62;;;;;;;30.74;32.66;99323.00;4466676;32;36054;-75
2022/06/07 12:05:53;;;;;;;3.70;1.85;;;;;;;31.95;30.25;99321.44;4481486;32;34851;-76
2022/06/07 12:09:05;;;;;;;2.28;1.60;;;;;;;31.38;29.54;99326.44;4475574;31;34535;-77
2022/06/07 12:11:56;;;;;;;3.10;1.65;;;;;;;31.05;29.50;99312.66;4469437;31;34578;-76
2022/06/07 12:14:58;;;;;;;1.75;1.52;;;;;;;32.01;29.96;99315.97;4467497;31;34863;-76
2022/06/07 12:18:08;;;;;;;2.25;1.60;;;;;;;31.53;30.08;99318.97;4481513;32;35752;-74
2022/06/07 12:21:14;;;;;;;3.35;1.70;;;;;;;30.70;30.71;99300.53;4465292;32;34987;-75
2022/06/07 12:24:17;;;;;;;4.53;1.70;;;;;;;29.79;32.44;99298.22;4469290;32;34693;-74
2022/06/07 12:27:31;;;;;;;2.17;1.60;;;;;;;30.54;31.77;99306.31;4468380;32;34865;-77
2022/06/07 12:30:34;;;;;;;8.80;2.22;;;;;;;30.79;29.98;99303.44;4480777;31;35432;-74
2022/06/07 12:33:32;;;;;;;3.72;1.92;;;;;;;29.70;32.88;99298.09;4467789;32;34678;-74
2022/06/07 12:36:24;;;;;;;5.72;2.00;;;;;;;30.57;32.79;99296.91;4481011;31;33635;-75
2022/06/07 12:39:13;;;;;;;;;;;;;;;31.24;30.64;99299.41;4466509;32;34546;-75
2022/06/07 12:42:08;;;;;;;3.22;2.08;;;;;;;31.59;30.38;99302.19;4465259;31;35407;-75
2022/06/07 12:44:59;;;;;;;2.67;1.95;;;;;;;31.19;29.70;99302.84;4470591;32;34147;-75
2022/06/07 12:50:57;;;;;;;4.57;2.30;;;;;;;31.36;33.58;99294.97;4470535;31;34573;-75
2022/06/07 12:53:47;;;;;;;4.45;1.98;;;;;;;31.49;30.46;99289.25;4478854;31;35422;-78
2022/06/07 12:56:47;;;;;;;2.03;1.67;;;;;;;31.86;30.57;99286.59;4482252;31;34131;-78
2022/06/07 12:59:52;;;;;;;3.35;2.10;;;;;;;32.92;28.86;99275.69;4470285;32;35739;-78
2022/06/07 13:02:47;;;;;;;6.28;2.20;;;;;;;33.33;28.66;99275.56;4468430;31;35695;-79
2022/06/07 13:05:44;;;;;;;5.60;2.20;;;;;;;32.76;29.56;99272.38;4459298;32;34236;-75
2022/06/07 13:08:38;;;;;;;4.28;2.53;;;;;;;31.14;29.97;99275.16;4457344;31;33812;-77
2022/06/07 13:11:37;;;;;;;3.92;2.60;;;;;;;31.46;30.90;99267.53;4468024;31;34345;-78
2022/06/07 13:14:30;;;;;;;2.70;2.50;;;;;;;32.55;28.64;99271.28;4471115;32;35706;-79
2022/06/07 13:17:29;;;;;;;3.92;2.28;;;;;;;31.76;30.38;99272.41;4481152;31;35619;-80
2022/06/07 13:20:37;;;;;;;4.17;3.00;;;;;;;32.36;29.56;99264.75;4467433;32;35185;-79
2022/06/07 13:23:32;;;;;;;4.25;3.22;;;;;;;31.25;31.73;99275.56;4466494;32;35540;-79
2022/06/07 13:26:23;;;;;;;5.78;3.45;;;;;;;31.47;31.79;99267.06;4457822;31;34725;-80
2022/06/07 13:29:27;;;;;;;5.07;3.40;;;;;;;31.98;31.13;99272.34;4465103;32;34672;-77
2022/06/07 13:32:28;;;;;;;7.43;4.25;;;;;;;32.18;31.23;99277.63;4463229;32;34090;-78
2022/06/07 13:35:23;;;;;;;7.22;4.53;;;;;;;31.91;31.14;99260.53;4464925;32;35493;-80
2022/06/07 13:38:23;;;;;;;8.27;4.40;;;;;;;29.17;35.30;99267.34;4460786;32;34955;-78
2022/06/07 13:41:21;;;;;;;6.93;4.65;;;;;;;29.01;35.79;99265.38;4451660;32;34195;-80
2022/06/07 13:44:08;;;;;;;6.90;4.85;;;;;;;30.55;33.48;99255.00;4463452;32;34176;-80
2022/06/07 13:53:55;;;;;;;6.82;4.75;;;;;;;29.34;36.33;99251.12;4458043;32;34949;-76
2022/06/07 13:56:44;;;;;;;6.30;5.40;;;;;;;29.61;35.43;99249.94;4458259;32;33823;-77
2022/06/07 13:59:37;;;;;;;8.43;5.28;;;;;;;30.44;34.61;99249.69;4457234;32;34229;-76
2022/06/07 14:02:38;;;;;;;7.68;5.07;;;;;;;30.17;33.36;99235.25;4452625;32;34535;-76
2022/06/07 14:05:31;;;;;;;6.55;4.45;;;;;;;31.48;33.36;99239.53;4452283;32;34534;-76
2022/06/07 14:11:44;;;;;;;9.77;5.50;;;;;;;32.56;30.93;99230.31;4457199;32;34269;-79
2022/06/07 14:14:31;;;;;;;8.68;5.60;;;;;;;31.36;33.40;99227.03;4461953;32;34648;-78
2022/06/07 14:17:23;;;;;;;7.25;5.05;;;;;;;31.54;31.64;99226.38;4453476;32;34285;-77